Time;durP1;ratioP1;P1;durP2;ratioP2;P2;SDS_P1;SDS_P2;PMS_P1;PMS_P2;Temp;Humidity;BMP_temperature;BMP_pressure;BME280_temperature;BME280_humidity;BME280_pressure;Samples;Min_cycle;Max_cycle;Signal;HPM_P1;HPM_P2
2022/04/30 00:00:48;;;;;;;0.90;0.70;;;17.60;63.20;;;;;;5205323;28;20194;-63
2022/04/30 00:03:40;;;;;;;2.17;0.90;;;17.60;63.20;;;;;;5205276;28;20225;-62
2022/04/30 00:06:32;;;;;;;0.80;0.80;;;17.60;63.20;;;;;;5204387;28;20671;-63
2022/04/30 00:09:25;;;;;;;1.23;0.87;;;17.60;63.20;;;;;;5205150;28;20200;-63
2022/04/30 00:12:18;;;;;;;1.50;0.80;;;17.60;63.20;;;;;;5204779;28;20218;-63
2022/04/30 00:15:10;;;;;;;0.93;0.80;;;17.60;63.20;;;;;;5204634;28;20280;-62
2022/04/30 00:18:03;;;;;;;1.30;0.70;;;17.60;63.20;;;;;;5205422;28;20210;-62
2022/04/30 00:20:58;;;;;;;1.67;0.90;;;17.60;63.20;;;;;;5205271;28;20202;-62
2022/04/30 00:23:50;;;;;;;1.73;0.93;;;17.60;63.20;;;;;;5204759;28;20236;-63
2022/04/30 00:26:44;;;;;;;1.00;0.90;;;17.60;63.20;;;;;;5205535;28;20189;-63
2022/04/30 00:29:36;;;;;;;1.20;0.80;;;17.60;63.20;;;;;;5206057;28;20208;-62
2022/04/30 00:32:28;;;;;;;1.13;0.80;;;17.60;63.20;;;;;;5184720;28;20214;-63
2022/04/30 00:35:20;;;;;;;1.00;0.80;;;17.50;63.10;;;;;;5196535;28;20198;-62
2022/04/30 00:38:14;;;;;;;2.30;0.80;;;17.60;63.10;;;;;;5205503;28;20224;-61
2022/04/30 00:41:08;;;;;;;2.57;0.90;;;17.60;63.10;;;;;;5203254;28;20277;-62
2022/04/30 00:44:01;;;;;;;1.87;0.80;;;17.60;63.10;;;;;;5203514;28;20249;-63
2022/04/30 00:46:54;;;;;;;2.03;0.90;;;17.60;63.10;;;;;;5204576;28;20205;-62
2022/04/30 00:49:47;;;;;;;1.47;0.80;;;17.60;63.10;;;;;;5204888;28;20773;-63
2022/04/30 00:52:39;;;;;;;1.60;0.90;;;17.60;63.10;;;;;;5204523;28;20224;-62
2022/04/30 00:55:33;;;;;;;0.83;0.83;;;17.60;63.10;;;;;;5205072;28;20679;-62
2022/04/30 00:58:27;;;;;;;1.00;0.80;;;17.60;63.20;;;;;;5183901;28;20210;-62
2022/04/30 01:01:21;;;;;;;0.90;0.80;;;17.60;63.10;;;;;;5183362;28;20204;-63
2022/04/30 01:04:14;;;;;;;1.00;0.90;;;17.50;63.10;;;;;;5200796;28;20227;-62
2022/04/30 01:07:07;;;;;;;1.20;0.73;;;17.60;63.10;;;;;;5205687;28;20209;-62
2022/04/30 01:10:00;;;;;;;1.00;0.93;;;17.60;63.10;;;;;;5203994;28;20194;-62
2022/04/30 01:12:53;;;;;;;1.93;0.77;;;17.60;63.10;;;;;;5204069;28;20300;-62
2022/04/30 01:15:45;;;;;;;0.93;0.80;;;17.60;63.10;;;;;;5205527;28;20209;-63
2022/04/30 01:18:38;;;;;;;1.17;0.70;;;17.60;63.10;;;;;;5204152;28;20217;-62
2022/04/30 01:21:32;;;;;;;1.23;0.70;;;17.60;63.00;;;;;;5204121;28;20688;-62
2022/04/30 01:24:28;;;;;;;1.40;1.00;;;17.60;63.10;;;;;;5203641;28;20697;-62
2022/04/30 01:27:22;;;;;;;1.37;0.90;;;17.60;63.00;;;;;;5203891;28;20189;-63
2022/04/30 01:30:16;;;;;;;0.73;0.73;;;17.60;63.10;;;;;;5204640;28;20194;-63
2022/04/30 01:39:34;;;;;;;0.70;0.70;;;17.50;63.10;;;;;;5157630;28;20204;-63
2022/04/30 01:42:30;;;;;;;2.03;0.87;;;17.50;63.10;;;;;;5207718;28;20213;-63
2022/04/30 01:45:23;;;;;;;1.33;0.80;;;17.50;63.10;;;;;;5208114;28;20213;-63
2022/04/30 01:48:16;;;;;;;1.50;1.03;;;17.50;63.10;;;;;;5207949;28;20190;-62
2022/04/30 01:51:08;;;;;;;1.23;0.90;;;17.50;63.10;;;;;;5208062;28;20690;-63
2022/04/30 01:54:00;;;;;;;1.50;0.97;;;17.60;63.10;;;;;;5206855;28;20222;-62
2022/04/30 01:56:54;;;;;;;1.53;0.83;;;17.50;63.10;;;;;;5206990;28;20320;-62
2022/04/30 01:59:46;;;;;;;0.90;0.80;;;17.50;63.10;;;;;;5207182;28;20186;-63
2022/04/30 02:02:40;;;;;;;1.63;0.70;;;17.60;63.10;;;;;;5207306;28;20708;-61
2022/04/30 02:05:33;;;;;;;0.93;0.90;;;17.50;63.10;;;;;;5207656;28;20202;-63
2022/04/30 02:08:26;;;;;;;0.87;0.87;;;17.60;63.10;;;;;;5201603;28;20211;-62
2022/04/30 02:11:18;;;;;;;0.80;0.80;;;17.50;63.00;;;;;;5207166;28;20198;-63
2022/04/30 02:14:13;;;;;;;0.80;0.80;;;17.50;63.00;;;;;;5207318;28;20210;-62
2022/04/30 02:17:06;;;;;;;1.20;0.90;;;17.50;62.90;;;;;;5187630;28;20578;-63
2022/04/30 02:20:22;;;;;;;1.57;0.80;;;17.50;63.00;;;;;;5188067;28;20183;-62
2022/04/30 02:23:15;;;;;;;2.47;1.10;;;17.50;62.90;;;;;;5186363;28;20222;-61
2022/04/30 02:26:09;;;;;;;1.57;0.80;;;17.50;63.00;;;;;;5206384;28;20197;-63
2022/04/30 02:29:01;;;;;;;1.37;0.80;;;17.50;63.00;;;;;;5206462;28;20673;-62
2022/04/30 02:31:54;;;;;;;0.90;0.80;;;17.50;63.00;;;;;;5206952;28;20240;-62
2022/04/30 02:34:47;;;;;;;0.97;0.77;;;17.50;63.00;;;;;;5207084;28;20209;-62
2022/04/30 02:37:40;;;;;;;0.90;0.90;;;17.50;62.90;;;;;;5206900;28;20214;-63
2022/04/30 02:40:33;;;;;;;0.97;0.90;;;17.50;62.90;;;;;;5207043;28;20201;-63
2022/04/30 02:43:26;;;;;;;1.47;0.87;;;17.50;62.90;;;;;;5206594;28;21470;-63
2022/04/30 02:46:20;;;;;;;1.20;0.73;;;17.50;62.90;;;;;;5205107;28;20200;-62
2022/04/30 02:49:13;;;;;;;1.97;1.00;;;17.50;62.90;;;;;;5199375;28;20220;-61
2022/04/30 02:52:06;;;;;;;1.07;0.77;;;17.50;62.90;;;;;;5204728;28;20198;-63
2022/04/30 02:54:58;;;;;;;0.90;0.80;;;17.50;62.90;;;;;;5206695;28;20282;-63
2022/04/30 03:01:00;;;;;;;1.27;0.90;;;17.50;62.90;;;;;;5197744;28;20738;-63
2022/04/30 03:03:52;;;;;;;1.10;0.77;;;17.50;62.90;;;;;;5206217;28;20312;-62
2022/04/30 03:06:46;;;;;;;1.63;0.80;;;17.50;62.90;;;;;;5205204;28;20197;-62
2022/04/30 03:09:39;;;;;;;2.27;1.00;;;17.50;62.80;;;;;;5206255;28;20273;-62
2022/04/30 03:12:31;;;;;;;0.83;0.80;;;17.50;62.80;;;;;;5206589;28;20218;-63
2022/04/30 03:15:25;;;;;;;1.07;0.80;;;17.50;62.80;;;;;;5205625;28;20653;-63
2022/04/30 03:21:45;;;;;;;1.13;0.90;;;17.50;62.80;;;;;;5206693;28;20181;-63
2022/04/30 03:24:38;;;;;;;1.87;0.93;;;17.50;62.80;;;;;;5206476;28;20576;-62
2022/04/30 03:27:32;;;;;;;1.17;1.00;;;17.50;62.80;;;;;;5206034;28;20195;-63
2022/04/30 03:30:24;;;;;;;2.53;1.10;;;17.50;62.80;;;;;;5201094;28;20190;-63
2022/04/30 03:33:16;;;;;;;1.33;0.80;;;17.50;62.80;;;;;;5205673;28;20217;-62
2022/04/30 03:36:11;;;;;;;1.00;0.90;;;17.50;62.80;;;;;;5187442;28;20194;-62
2022/04/30 03:39:04;;;;;;;0.87;0.70;;;17.50;62.90;;;;;;5205764;28;20228;-62
2022/04/30 03:41:57;;;;;;;0.70;0.70;;;17.50;62.80;;;;;;5205565;28;20229;-63
2022/04/30 03:44:49;;;;;;;1.13;0.70;;;17.50;62.80;;;;;;5207545;28;20196;-62
2022/04/30 03:47:41;;;;;;;1.20;0.83;;;17.50;62.80;;;;;;5207505;28;20201;-62
2022/04/30 03:50:33;;;;;;;1.30;0.83;;;17.50;62.80;;;;;;5207075;28;20249;-62
2022/04/30 03:53:26;;;;;;;1.20;0.90;;;17.50;62.80;;;;;;5205282;28;20224;-63
2022/04/30 03:56:19;;;;;;;1.77;1.00;;;17.50;62.80;;;;;;5204258;28;20277;-63
2022/04/30 03:59:13;;;;;;;1.67;1.03;;;17.50;62.80;;;;;;5204615;28;20242;-63
2022/04/30 04:02:06;;;;;;;1.47;1.00;;;17.50;62.70;;;;;;5201581;28;20725;-63
2022/04/30 04:04:58;;;;;;;1.40;0.90;;;17.50;62.70;;;;;;5232224;22;20354;-69
2022/04/30 04:07:50;;;;;;;2.13;1.00;;;17.50;62.70;;;;;;5223864;28;20200;-69
2022/04/30 04:10:42;;;;;;;1.20;0.90;;;17.50;62.70;;;;;;5212726;28;20202;-69
2022/04/30 04:19:55;;;;;;;0.90;0.90;;;17.50;62.70;;;;;;5235913;28;20212;-67
2022/04/30 04:22:47;;;;;;;2.03;1.20;;;17.50;62.70;;;;;;5234636;28;20199;-69
2022/04/30 04:28:49;;;;;;;0.90;0.90;;;17.50;62.70;;;;;;5233892;28;20533;-69
2022/04/30 04:31:41;;;;;;;1.17;0.77;;;17.50;62.70;;;;;;5226746;28;20272;-69
2022/04/30 04:34:34;;;;;;;1.10;0.90;;;17.50;62.70;;;;;;5224140;28;20217;-69
2022/04/30 04:37:27;;;;;;;1.23;0.90;;;17.50;62.70;;;;;;5225832;28;20282;-69
2022/04/30 04:40:20;;;;;;;3.80;1.13;;;17.50;62.70;;;;;;5224357;28;20225;-69
2022/04/30 04:43:12;;;;;;;1.90;1.00;;;17.50;62.70;;;;;;5218198;28;20299;-69
2022/04/30 04:46:04;;;;;;;1.73;0.80;;;17.60;62.60;;;;;;5233609;28;20665;-69
2022/04/30 04:48:56;;;;;;;1.17;0.83;;;17.50;62.50;;;;;;5245645;28;20203;-68
2022/04/30 04:51:50;;;;;;;1.47;1.07;;;17.50;62.50;;;;;;5245357;28;20569;-69
2022/04/30 04:54:42;;;;;;;0.70;0.70;;;17.60;62.50;;;;;;5246082;28;20248;-70
2022/04/30 04:57:34;;;;;;;0.80;0.80;;;17.50;62.50;;;;;;5245321;28;20200;-69
2022/04/30 05:00:26;;;;;;;1.17;0.60;;;17.60;62.50;;;;;;5246954;28;20587;-69
2022/04/30 05:03:18;;;;;;;1.53;0.80;;;17.60;62.50;;;;;;5242254;28;20212;-67
2022/04/30 05:06:10;;;;;;;0.97;0.77;;;17.60;62.50;;;;;;5245156;28;20197;-67
2022/04/30 05:09:04;;;;;;;1.03;0.83;;;17.60;62.40;;;;;;5245485;28;20200;-67
2022/04/30 05:11:56;;;;;;;1.50;0.80;;;17.60;62.40;;;;;;5244714;28;20192;-66
2022/04/30 05:14:52;;;;;;;1.00;0.90;;;17.60;62.40;;;;;;5244134;28;20208;-67
2022/04/30 05:17:44;;;;;;;0.90;0.83;;;17.60;62.40;;;;;;5250529;28;20196;-67
2022/04/30 05:20:37;;;;;;;1.30;0.90;;;17.60;62.50;;;;;;5249422;28;20640;-67
2022/04/30 05:23:29;;;;;;;1.07;0.97;;;17.60;62.40;;;;;;5248267;28;20717;-67
2022/04/30 05:26:23;;;;;;;0.83;0.80;;;17.60;62.50;;;;;;5250632;28;20207;-68
2022/04/30 05:29:15;;;;;;;0.90;0.80;;;17.60;62.50;;;;;;5233222;28;20195;-68
2022/04/30 05:32:08;;;;;;;1.23;0.83;;;17.60;62.50;;;;;;5227862;28;20189;-67
2022/04/30 05:35:00;;;;;;;0.80;0.60;;;17.60;62.50;;;;;;5228879;28;20227;-67
2022/04/30 05:37:52;;;;;;;3.38;1.20;;;17.60;62.50;;;;;;5241535;28;20422;-66
2022/04/30 05:40:44;;;;;;;1.20;0.93;;;17.60;61.80;;;;;;5245599;28;20193;-66
2022/04/30 05:43:38;;;;;;;1.37;1.00;;;17.60;62.20;;;;;;5234351;28;20221;-66
2022/04/30 05:46:30;;;;;;;1.07;0.80;;;17.60;62.20;;;;;;5233284;28;20197;-66
2022/04/30 05:49:22;;;;;;;1.43;0.80;;;17.60;62.30;;;;;;5227938;28;20599;-67
2022/04/30 05:52:14;;;;;;;1.30;0.83;;;17.60;62.40;;;;;;5242554;28;20193;-67
2022/04/30 05:55:07;;;;;;;2.00;0.90;;;17.60;62.40;;;;;;5229168;28;20827;-66
2022/04/30 05:57:59;;;;;;;1.47;1.00;;;17.60;62.40;;;;;;5249374;28;20667;-64
2022/04/30 06:00:52;;;;;;;1.33;0.90;;;17.60;62.40;;;;;;5227758;28;20542;-66
2022/04/30 06:03:44;;;;;;;1.70;1.00;;;17.60;62.40;;;;;;5227037;28;20217;-66
2022/04/30 06:06:36;;;;;;;1.33;0.83;;;17.60;63.00;;;;;;5244400;28;20198;-66
2022/04/30 06:09:29;;;;;;;1.10;1.00;;;17.60;62.50;;;;;;5247996;28;20184;-66
2022/04/30 06:12:21;;;;;;;0.93;0.77;;;17.60;62.50;;;;;;5247032;28;20200;-66
2022/04/30 06:15:14;;;;;;;1.33;0.70;;;17.60;62.50;;;;;;5249723;28;20213;-66
2022/04/30 06:18:08;;;;;;;0.90;0.80;;;17.50;62.50;;;;;;5248776;28;20663;-66
2022/04/30 06:21:01;;;;;;;1.07;0.70;;;17.50;62.50;;;;;;5249178;28;20196;-65
2022/04/30 06:23:53;;;;;;;1.13;0.73;;;17.60;62.60;;;;;;5248449;28;20707;-66
2022/04/30 06:26:45;;;;;;;1.37;1.07;;;17.60;62.60;;;;;;5247770;28;20242;-66
2022/04/30 06:29:38;;;;;;;1.00;0.83;;;17.60;62.50;;;;;;5235899;28;20203;-66
2022/04/30 06:32:30;;;;;;;1.40;1.00;;;17.60;62.50;;;;;;5228768;28;20201;-66
2022/04/30 06:35:24;;;;;;;2.27;0.80;;;17.60;62.50;;;;;;5238723;28;20193;-67
2022/04/30 06:38:16;;;;;;;1.43;0.90;;;17.60;62.60;;;;;;5234774;28;20244;-66
2022/04/30 06:41:08;;;;;;;1.17;0.87;;;17.60;62.60;;;;;;5227704;28;20201;-65
2022/04/30 06:44:00;;;;;;;1.10;0.90;;;17.60;62.60;;;;;;5235278;28;20224;-66
2022/04/30 06:46:52;;;;;;;1.07;0.97;;;17.60;62.60;;;;;;5232857;28;20198;-66
2022/04/30 06:49:44;;;;;;;1.23;0.93;;;17.60;62.60;;;;;;5226413;28;20219;-66
2022/04/30 06:57:07;;;;;;;0.87;0.70;;;17.60;62.60;;;;;;5231342;28;20568;-66
2022/04/30 06:59:00;;;;;;;0.90;0.70;;;17.60;62.60;;;;;;5225470;28;20239;-66
2022/04/30 07:01:59;;;;;;;1.13;0.87;;;17.60;62.70;;;;;;5232221;28;20291;-67
2022/04/30 07:04:51;;;;;;;1.40;0.80;;;17.50;62.60;;;;;;5229124;28;20825;-66
2022/04/30 07:07:45;;;;;;;5.23;0.90;;;17.60;62.70;;;;;;5225699;28;20281;-66
2022/04/30 07:10:37;;;;;;;1.77;1.07;;;17.60;62.80;;;;;;5227810;28;20203;-66
2022/04/30 07:13:30;;;;;;;1.40;0.93;;;17.60;62.80;;;;;;5222558;28;20767;-67
2022/04/30 07:16:22;;;;;;;2.50;0.90;;;17.60;62.80;;;;;;5223877;28;20564;-66
2022/04/30 07:19:15;;;;;;;2.13;1.00;;;17.60;62.80;;;;;;5235817;28;20212;-66
2022/04/30 07:22:09;;;;;;;5.23;1.20;;;17.50;62.80;;;;;;5237238;28;20687;-66
2022/04/30 07:25:04;;;;;;;2.43;0.90;;;17.60;62.80;;;;;;5236906;28;20217;-66
2022/04/30 07:27:56;;;;;;;1.50;1.20;;;17.60;62.90;;;;;;5245669;28;20204;-66
2022/04/30 07:30:48;;;;;;;4.03;1.10;;;17.60;62.90;;;;;;5245754;28;20583;-65
2022/04/30 07:33:41;;;;;;;3.07;1.00;;;17.60;62.90;;;;;;5243734;28;20273;-66
2022/04/30 07:36:33;;;;;;;1.63;0.77;;;17.60;62.80;;;;;;5242550;28;20214;-66
2022/04/30 07:39:25;;;;;;;3.23;0.80;;;17.60;62.90;;;;;;5246315;28;20213;-66
2022/04/30 07:42:18;;;;;;;2.30;1.10;;;17.60;62.90;;;;;;5240369;28;20628;-66
2022/04/30 07:45:11;;;;;;;2.40;0.80;;;17.60;63.00;;;;;;5245642;28;20216;-66
2022/04/30 07:48:04;;;;;;;2.00;1.17;;;17.60;63.00;;;;;;5245891;28;20211;-66
2022/04/30 07:50:57;;;;;;;3.03;1.00;;;17.60;63.00;;;;;;5245468;28;20192;-66
2022/04/30 07:53:49;;;;;;;3.27;0.73;;;17.60;63.10;;;;;;5236775;28;20220;-66
2022/04/30 07:56:41;;;;;;;1.17;1.07;;;17.60;63.00;;;;;;5235609;28;20660;-66
2022/04/30 07:59:35;;;;;;;1.43;1.00;;;17.60;63.10;;;;;;5240551;28;20592;-66
2022/04/30 08:02:27;;;;;;;1.90;1.20;;;17.60;63.10;;;;;;5231924;28;20197;-66
2022/04/30 08:05:25;;;;;;;1.23;1.10;;;17.60;63.10;;;;;;5240525;28;20606;-66
2022/04/30 08:08:17;;;;;;;2.13;1.00;;;17.60;63.10;;;;;;5236537;28;20203;-66
2022/04/30 08:11:10;;;;;;;2.07;1.10;;;17.60;63.10;;;;;;5239035;28;20196;-67
2022/04/30 08:14:02;;;;;;;1.77;1.00;;;17.60;63.10;;;;;;5247022;28;20217;-66
2022/04/30 08:16:55;;;;;;;2.13;1.10;;;17.60;63.20;;;;;;5246708;28;20200;-67
2022/04/30 08:19:48;;;;;;;3.83;0.93;;;17.60;63.10;;;;;;5245747;28;20228;-67
2022/04/30 08:22:40;;;;;;;1.73;1.20;;;17.60;63.10;;;;;;5228081;28;20197;-66
2022/04/30 08:25:33;;;;;;;1.73;1.10;;;17.60;63.20;;;;;;5226343;28;20193;-67
2022/04/30 08:28:25;;;;;;;2.87;1.30;;;17.60;63.20;;;;;;5224767;28;20193;-66
2022/04/30 08:31:18;;;;;;;1.93;1.30;;;17.60;63.20;;;;;;5239731;28;20203;-66
2022/04/30 08:34:11;;;;;;;1.60;1.37;;;17.60;63.20;;;;;;5237454;28;20212;-66
2022/04/30 08:37:04;;;;;;;3.90;1.07;;;17.60;63.20;;;;;;5244974;28;20678;-66
2022/04/30 08:39:56;;;;;;;1.30;1.17;;;17.60;63.30;;;;;;5258247;28;20215;-68
2022/04/30 08:42:48;;;;;;;1.70;1.17;;;17.60;63.30;;;;;;5260843;28;20205;-67
2022/04/30 08:45:42;;;;;;;3.33;1.30;;;17.60;63.30;;;;;;5245659;28;20311;-67
2022/04/30 08:48:35;;;;;;;1.73;1.00;;;17.60;63.40;;;;;;5244124;28;20197;-66
2022/04/30 08:51:29;;;;;;;2.33;1.30;;;17.60;63.40;;;;;;5250625;28;20193;-67
2022/04/30 08:54:21;;;;;;;1.43;1.33;;;17.60;63.40;;;;;;5266480;28;20226;-66
2022/04/30 08:57:15;;;;;;;1.67;1.30;;;17.60;63.40;;;;;;5266416;28;20570;-67
2022/04/30 09:00:08;;;;;;;1.30;1.10;;;17.60;63.40;;;;;;5266162;28;20223;-66
2022/04/30 09:03:01;;;;;;;2.40;1.33;;;17.50;63.30;;;;;;5265763;28;20196;-65
2022/04/30 09:05:53;;;;;;;2.03;1.23;;;17.60;63.50;;;;;;5260900;28;20196;-66
2022/04/30 09:08:50;;;;;;;2.03;1.20;;;17.50;63.30;;;;;;5245397;28;20196;-66
2022/04/30 09:11:42;;;;;;;1.50;1.40;;;17.60;63.30;;;;;;5244156;28;20575;-67
2022/04/30 09:14:34;;;;;;;2.03;1.30;;;17.60;63.30;;;;;;5237879;28;20225;-67
2022/04/30 09:17:27;;;;;;;2.17;1.33;;;17.60;63.20;;;;;;5236842;28;20199;-66
2022/04/30 09:20:20;;;;;;;1.30;0.90;;;17.60;63.30;;;;;;5235658;28;20208;-66
2022/04/30 09:23:12;;;;;;;1.50;1.00;;;17.60;63.80;;;;;;5226447;28;20236;-66
2022/04/30 09:26:06;;;;;;;3.23;1.10;;;17.60;63.20;;;;;;5236813;28;20245;-67
2022/04/30 09:29:01;;;;;;;1.43;1.20;;;17.60;63.30;;;;;;5244033;28;20193;-67
2022/04/30 09:31:53;;;;;;;1.00;0.87;;;17.60;63.30;;;;;;5244828;28;20189;-67
2022/04/30 09:37:57;;;;;;;2.03;1.23;;;17.60;63.30;;;;;;5244650;28;20606;-66
2022/04/30 09:40:53;;;;;;;1.50;1.03;;;17.60;63.30;;;;;;5244811;28;20215;-66
2022/04/30 09:43:46;;;;;;;2.13;1.17;;;17.60;63.40;;;;;;5245020;28;20232;-67
2022/04/30 09:46:40;;;;;;;1.60;1.00;;;17.60;63.40;;;;;;5246697;28;20572;-67
2022/04/30 09:55:54;;;;;;;2.17;1.20;;;17.60;63.40;;;;;;5265381;28;20187;-66
2022/04/30 09:58:48;;;;;;;1.30;0.77;;;17.50;63.30;;;;;;5266141;28;20671;-67
2022/04/30 10:01:42;;;;;;;1.20;0.90;;;17.50;63.30;;;;;;5258725;28;20220;-67
2022/04/30 10:04:35;;;;;;;1.97;1.27;;;17.60;63.40;;;;;;5237145;22;20514;-65
2022/04/30 10:07:29;;;;;;;1.30;0.90;;;17.60;63.40;;;;;;5223224;28;20204;-65
2022/04/30 10:10:28;;;;;;;0.90;0.80;;;17.60;63.40;;;;;;5225238;28;20193;-64
2022/04/30 10:13:29;;;;;;;1.00;0.90;;;17.60;63.40;;;;;;5232274;28;20193;-64
2022/04/30 10:16:28;;;;;;;1.57;1.03;;;17.50;63.40;;;;;;5200743;28;20194;-64
2022/04/30 10:19:21;;;;;;;1.43;1.00;;;17.50;63.30;;;;;;5201592;28;20190;-64
2022/04/30 10:22:15;;;;;;;1.10;1.00;;;17.60;63.40;;;;;;5207610;28;20194;-64
2022/04/30 10:25:08;;;;;;;1.80;1.17;;;17.60;63.30;;;;;;5207315;28;20218;-64
2022/04/30 10:28:04;;;;;;;2.30;0.93;;;17.60;63.30;;;;;;5207375;28;20252;-64
2022/04/30 10:31:01;;;;;;;1.70;1.10;;;17.60;63.30;;;;;;5205934;28;20296;-64
2022/04/30 10:33:55;;;;;;;2.17;1.10;;;17.60;63.30;;;;;;5205960;28;20248;-64
2022/04/30 10:36:55;;;;;;;2.50;0.80;;;17.60;63.30;;;;;;5203666;28;20205;-64
2022/04/30 10:39:56;;;;;;;1.13;0.90;;;17.60;63.30;;;;;;5215510;28;20260;-64
2022/04/30 10:42:48;;;;;;;0.70;0.70;;;17.60;63.30;;;;;;5226557;28;20664;-64
2022/04/30 10:45:40;;;;;;;2.87;0.90;;;17.50;63.20;;;;;;5226175;28;20213;-64
2022/04/30 10:48:35;;;;;;;2.30;1.10;;;17.60;63.30;;;;;;5226205;28;20193;-64
2022/04/30 10:51:39;;;;;;;1.53;1.10;;;17.60;63.30;;;;;;5214955;28;20635;-63
2022/04/30 10:54:31;;;;;;;0.80;0.80;;;17.50;63.20;;;;;;5185682;28;20693;-64
2022/04/30 10:57:23;;;;;;;1.13;0.80;;;17.60;63.30;;;;;;5185843;28;20203;-63
2022/04/30 11:00:16;;;;;;;1.33;0.90;;;17.50;63.30;;;;;;5185750;28;20395;-64
2022/04/30 11:03:10;;;;;;;0.90;0.80;;;17.50;63.30;;;;;;5185477;28;20270;-64
2022/04/30 11:06:02;;;;;;;1.37;0.90;;;17.60;63.30;;;;;;5194832;28;20525;-64
2022/04/30 11:09:00;;;;;;;1.07;0.97;;;17.50;63.30;;;;;;5205590;28;20194;-64
2022/04/30 11:11:52;;;;;;;1.53;0.90;;;17.50;63.30;;;;;;5205115;28;20211;-64
2022/04/30 11:14:46;;;;;;;1.50;1.03;;;17.50;63.30;;;;;;5205442;28;20217;-64
2022/04/30 11:17:43;;;;;;;2.30;1.40;;;17.50;63.30;;;;;;5205797;28;20205;-64
2022/04/30 11:20:36;;;;;;;2.87;1.40;;;17.50;63.30;;;;;;5200521;28;20220;-64
2022/04/30 11:23:29;;;;;;;1.67;1.27;;;17.60;63.30;;;;;;5186318;28;20195;-64
2022/04/30 11:26:23;;;;;;;2.00;1.23;;;17.50;63.30;;;;;;5185752;28;20665;-64
2022/04/30 11:29:15;;;;;;;3.03;1.50;;;17.60;63.30;;;;;;5202117;28;20284;-64
2022/04/30 11:32:08;;;;;;;5.37;1.50;;;17.60;63.30;;;;;;5207016;28;20194;-64
2022/04/30 11:35:02;;;;;;;2.97;1.50;;;17.50;63.30;;;;;;5205294;28;20229;-64
2022/04/30 11:37:54;;;;;;;3.77;1.43;;;17.60;63.40;;;;;;5205632;28;20340;-64
2022/04/30 11:40:47;;;;;;;2.83;1.70;;;17.60;64.00;;;;;;5205064;28;20293;-64
2022/04/30 11:43:40;;;;;;;4.37;1.90;;;17.60;63.40;;;;;;5205158;28;20661;-64
2022/04/30 11:46:32;;;;;;;2.90;1.97;;;17.50;63.30;;;;;;5204099;28;20194;-65
2022/04/30 11:49:26;;;;;;;4.30;1.87;;;17.50;63.40;;;;;;5203980;28;20235;-64
2022/04/30 11:52:18;;;;;;;3.70;1.73;;;17.50;63.40;;;;;;5207085;28;20197;-64
2022/04/30 11:55:10;;;;;;;5.20;2.17;;;17.60;63.50;;;;;;5204467;28;20689;-64
2022/04/30 11:58:04;;;;;;;3.63;1.70;;;17.50;63.40;;;;;;5204598;28;20197;-64
2022/04/30 12:00:58;;;;;;;6.00;2.30;;;17.50;63.50;;;;;;5205153;28;20225;-64
2022/04/30 12:03:59;;;;;;;5.17;2.47;;;17.50;63.50;;;;;;5204569;28;20225;-65
2022/04/30 12:06:59;;;;;;;7.83;2.57;;;17.50;63.40;;;;;;5203206;28;20230;-64
2022/04/30 12:09:51;;;;;;;6.20;2.50;;;17.60;63.50;;;;;;5205157;28;20721;-65
2022/04/30 12:12:43;;;;;;;4.10;2.20;;;17.50;63.40;;;;;;5204374;28;20673;-64
2022/04/30 12:15:38;;;;;;;5.03;2.37;;;17.50;63.40;;;;;;5204726;28;20697;-64
2022/04/30 12:24:54;;;;;;;5.60;2.03;;;17.50;63.40;;;;;;5204046;28;20206;-64
2022/04/30 12:27:54;;;;;;;4.53;2.33;;;17.50;63.30;;;;;;5204002;28;20255;-64
2022/04/30 12:30:53;;;;;;;5.57;2.30;;;17.50;63.30;;;;;;5207813;28;20212;-64
2022/04/30 12:33:50;;;;;;;6.50;2.20;;;17.60;63.40;;;;;;5204209;28;20201;-65
2022/04/30 12:36:51;;;;;;;3.00;1.87;;;17.50;63.30;;;;;;5202922;28;20208;-64
2022/04/30 12:39:43;;;;;;;4.67;1.90;;;17.50;63.30;;;;;;5203136;28;20190;-64
2022/04/30 12:42:37;;;;;;;9.20;2.50;;;17.50;63.20;;;;;;5203436;28;20258;-64
2022/04/30 12:45:31;;;;;;;4.30;1.80;;;17.50;63.20;;;;;;5203581;28;20307;-64
2022/04/30 12:48:23;;;;;;;4.97;1.90;;;17.50;63.10;;;;;;5202742;28;20190;-64
2022/04/30 12:51:19;;;;;;;4.23;2.13;;;17.50;63.10;;;;;;5196907;28;20826;-64
2022/04/30 12:54:12;;;;;;;4.67;1.90;;;17.50;63.20;;;;;;5205765;28;20305;-64
2022/04/30 12:57:07;;;;;;;3.93;2.23;;;17.50;63.10;;;;;;5206575;28;20200;-64
2022/04/30 13:00:00;;;;;;;5.17;2.17;;;17.50;63.20;;;;;;5196752;28;20194;-64
2022/04/30 13:02:53;;;;;;;5.00;1.93;;;17.50;63.20;;;;;;5204272;28;20190;-64
2022/04/30 13:05:45;;;;;;;5.75;2.30;;;17.60;63.20;;;;;;5203243;28;20426;-64
2022/04/30 13:14:57;;;;;;;2.57;1.77;;;17.60;62.40;;;;;;5203828;28;20209;-64
2022/04/30 13:17:50;;;;;;;2.87;1.67;;;17.60;62.30;;;;;;5202409;28;20569;-64
2022/04/30 13:20:42;;;;;;;4.23;1.53;;;17.50;62.20;;;;;;5202607;28;20206;-64
2022/04/30 13:23:34;;;;;;;4.37;1.43;;;17.50;62.30;;;;;;5202960;28;20198;-65
2022/04/30 13:26:27;;;;;;;3.53;1.60;;;17.50;62.30;;;;;;5203068;28;20688;-64
2022/04/30 13:29:19;;;;;;;2.03;1.37;;;17.60;62.30;;;;;;5204405;28;20194;-64
2022/04/30 13:32:11;;;;;;;3.80;2.10;;;17.50;62.20;;;;;;5202637;28;20565;-64
2022/04/30 13:35:04;;;;;;;4.10;1.60;;;17.50;62.20;;;;;;5203912;28;20218;-64
2022/04/30 13:37:56;;;;;;;3.20;1.53;;;17.50;62.30;;;;;;5192296;28;20202;-64
2022/04/30 13:40:48;;;;;;;3.57;1.50;;;17.50;62.30;;;;;;5209138;28;20292;-64
2022/04/30 13:43:42;;;;;;;3.00;1.50;;;17.50;62.30;;;;;;5209302;28;20281;-65
2022/04/30 13:46:34;;;;;;;3.30;1.40;;;17.50;62.30;;;;;;5209058;28;20201;-65
2022/04/30 13:49:27;;;;;;;1.63;1.30;;;17.50;62.40;;;;;;5208969;28;20269;-64
2022/04/30 13:52:19;;;;;;;2.00;1.37;;;17.50;62.40;;;;;;5207192;28;20202;-64
2022/04/30 13:55:13;;;;;;;2.57;1.40;;;17.50;62.30;;;;;;5203264;28;20217;-64
2022/04/30 13:58:05;;;;;;;4.83;1.40;;;17.50;62.30;;;;;;5207377;28;20196;-64
2022/04/30 14:00:59;;;;;;;2.67;1.40;;;17.50;62.20;;;;;;5206656;28;20206;-64
2022/04/30 14:03:51;;;;;;;2.63;1.10;;;17.50;62.20;;;;;;5206622;28;20712;-64
2022/04/30 14:06:43;;;;;;;1.80;1.10;;;17.50;62.30;;;;;;5206321;28;20244;-64
2022/04/30 14:09:35;;;;;;;2.07;1.17;;;17.50;62.40;;;;;;5205610;28;20277;-64
2022/04/30 14:12:27;;;;;;;3.30;1.27;;;17.50;62.50;;;;;;5202108;28;20612;-64
2022/04/30 14:15:19;;;;;;;1.83;1.27;;;17.50;62.50;;;;;;5198016;28;20293;-64
2022/04/30 14:18:21;;;;;;;2.67;1.17;;;17.50;62.50;;;;;;5186605;28;20206;-64
2022/04/30 14:21:13;;;;;;;2.67;1.00;;;17.50;62.50;;;;;;5198818;28;20688;-65
2022/04/30 14:24:06;;;;;;;2.20;1.20;;;17.50;62.40;;;;;;5206926;28;20716;-64
2022/04/30 14:26:58;;;;;;;1.67;0.93;;;17.50;62.40;;;;;;5206917;28;20202;-64
2022/04/30 14:29:50;;;;;;;1.93;1.10;;;17.50;62.40;;;;;;5205132;28;20197;-64
2022/04/30 14:32:42;;;;;;;1.40;1.03;;;17.50;62.20;;;;;;5218181;28;20276;-64
2022/04/30 14:35:37;;;;;;;1.43;0.77;;;17.50;62.30;;;;;;5227858;28;20223;-64
2022/04/30 14:38:29;;;;;;;1.50;0.80;;;17.50;63.00;;;;;;5226771;28;20652;-64
2022/04/30 14:41:21;;;;;;;2.53;1.30;;;17.50;62.30;;;;;;5226202;28;20213;-63
2022/04/30 14:44:13;;;;;;;1.87;1.07;;;17.50;62.20;;;;;;5206888;28;20216;-64
2022/04/30 14:47:05;;;;;;;2.40;1.10;;;17.50;62.20;;;;;;5206323;28;20197;-65
2022/04/30 14:49:58;;;;;;;2.87;1.13;;;17.50;62.20;;;;;;5209428;28;20198;-64
2022/04/30 14:52:52;;;;;;;1.50;0.80;;;17.50;62.20;;;;;;5194799;28;20692;-64
2022/04/30 14:55:44;;;;;;;1.27;1.00;;;17.50;62.20;;;;;;5204796;28;20311;-64
2022/04/30 14:58:39;;;;;;;1.20;0.70;;;17.50;62.20;;;;;;5206072;28;20248;-64
2022/04/30 15:01:31;;;;;;;2.50;1.00;;;17.50;62.30;;;;;;5206030;28;20222;-64
2022/04/30 15:04:24;;;;;;;1.10;0.83;;;17.50;62.20;;;;;;5205225;28;20222;-64
2022/04/30 15:07:16;;;;;;;2.17;1.10;;;17.50;62.20;;;;;;5205605;28;20210;-64
2022/04/30 15:10:10;;;;;;;1.23;0.80;;;17.50;62.10;;;;;;5202786;28;20229;-64
2022/04/30 15:13:02;;;;;;;1.53;1.13;;;17.50;62.10;;;;;;5204146;28;20205;-64
2022/04/30 15:15:55;;;;;;;2.13;0.80;;;17.50;62.00;;;;;;5206115;28;20224;-64
2022/04/30 15:18:47;;;;;;;1.07;0.80;;;17.50;62.10;;;;;;5206266;28;20198;-64
2022/04/30 15:21:39;;;;;;;1.33;0.90;;;17.50;62.10;;;;;;5204762;28;20297;-65
2022/04/30 15:24:31;;;;;;;2.70;1.20;;;17.50;62.10;;;;;;5205625;28;20222;-64
2022/04/30 15:27:24;;;;;;;0.97;0.80;;;17.50;62.10;;;;;;5205011;28;20204;-64
2022/04/30 15:30:16;;;;;;;0.70;0.63;;;17.50;62.20;;;;;;5199143;28;20202;-64
2022/04/30 15:33:08;;;;;;;1.10;0.80;;;17.50;62.20;;;;;;5196109;28;20200;-64
2022/04/30 15:36:03;;;;;;;1.70;1.10;;;17.50;62.10;;;;;;5204818;28;20422;-64
2022/04/30 15:38:55;;;;;;;2.40;0.80;;;17.50;61.90;;;;;;5205792;28;20198;-63
2022/04/30 15:41:47;;;;;;;4.47;0.97;;;17.60;60.60;;;;;;5204398;28;20889;-64
2022/04/30 15:44:41;;;;;;;2.90;1.00;;;17.50;60.70;;;;;;5204308;28;20479;-63
2022/04/30 15:53:54;;;;;;;1.10;1.00;;;17.60;60.40;;;;;;5206322;28;20213;-64
2022/04/30 15:56:46;;;;;;;1.10;0.83;;;17.60;60.50;;;;;;5204786;28;20198;-65